createdAt,value
2023-04-18T00:01:15.052Z,102066.80
2023-04-18T00:03:46.011Z,102066.60
2023-04-18T00:06:14.224Z,102067.20
2023-04-18T00:08:42.154Z,102067.20
2023-04-18T00:11:10.006Z,102067.80
2023-04-18T00:13:39.457Z,102067.60
2023-04-18T00:16:13.308Z,102065.20
2023-04-18T00:18:41.219Z,102068.00
2023-04-18T00:21:11.649Z,102067.00
2023-04-18T00:23:39.857Z,102065.20
2023-04-18T00:26:07.730Z,102067.00
2023-04-18T00:28:35.544Z,102068.60
2023-04-18T00:31:03.851Z,102066.60
2023-04-18T00:33:34.681Z,102070.00
2023-04-18T00:36:02.565Z,102070.40
2023-04-18T00:38:30.446Z,102066.60
2023-04-18T00:40:58.286Z,102064.60
2023-04-18T00:43:26.908Z,102064.20
2023-04-18T00:45:57.019Z,102065.40
2023-04-18T00:48:25.086Z,102064.00
2023-04-18T00:50:55.854Z,102067.40
2023-04-18T00:53:24.220Z,102070.80
2023-04-18T00:55:53.097Z,102074.00
2023-04-18T00:58:21.233Z,102073.80
2023-04-18T01:00:49.055Z,102080.00
2023-04-18T01:03:18.324Z,102077.60
2023-04-18T01:05:47.317Z,102068.20
2023-04-18T01:08:16.252Z,102066.00
2023-04-18T01:10:45.092Z,102061.80
2023-04-18T01:13:20.641Z,102061.40
2023-04-18T01:15:50.884Z,102060.80
2023-04-18T01:18:19.063Z,102059.40
2023-04-18T01:20:53.208Z,102058.60
2023-04-18T01:23:21.486Z,102056.40
2023-04-18T01:25:49.546Z,102053.40
2023-04-18T01:28:23.866Z,102045.00
2023-04-18T01:30:52.075Z,102047.60
2023-04-18T01:33:20.009Z,102043.40
2023-04-18T01:35:48.231Z,102043.80
2023-04-18T01:38:15.986Z,102042.00
2023-04-18T01:40:44.098Z,102043.00
2023-04-18T01:43:12.118Z,102043.40
2023-04-18T01:45:40.055Z,102044.00
2023-04-18T01:48:09.876Z,102044.60
2023-04-18T01:50:37.800Z,102043.60
2023-04-18T01:53:05.695Z,102038.80
2023-04-18T01:55:33.487Z,102030.80
2023-04-18T01:58:01.286Z,102035.80
2023-04-18T02:00:29.139Z,102032.20
2023-04-18T02:02:59.666Z,102033.80
2023-04-18T02:05:27.760Z,102031.00
2023-04-18T02:07:55.977Z,102035.40
2023-04-18T02:10:24.504Z,102036.80
2023-04-18T02:12:52.396Z,102038.80
2023-04-18T02:15:20.987Z,102035.00
2023-04-18T02:17:49.099Z,102032.60
2023-04-18T02:20:16.976Z,102033.60
2023-04-18T02:22:44.756Z,102032.80
2023-04-18T02:25:12.604Z,102030.40
2023-04-18T02:27:40.409Z,102028.40
2023-04-18T02:30:09.023Z,102027.40
2023-04-18T02:32:36.897Z,102029.00
2023-04-18T02:35:05.245Z,102032.80
2023-04-18T02:37:33.039Z,102028.60
2023-04-18T02:40:00.789Z,102029.00
2023-04-18T02:42:31.757Z,102030.00
2023-04-18T02:45:00.712Z,102031.00
2023-04-18T02:47:29.490Z,102033.40
2023-04-18T02:49:58.769Z,102032.60
2023-04-18T02:52:28.206Z,102033.80
2023-04-18T02:54:56.001Z,102026.20
2023-04-18T02:57:26.583Z,102026.00
2023-04-18T03:00:02.413Z,102023.80
2023-04-18T03:02:42.522Z,102025.00
2023-04-18T03:05:22.311Z,102025.60
2023-04-18T03:07:51.273Z,102024.60
2023-04-18T03:10:19.698Z,102023.80
2023-04-18T03:12:47.861Z,102017.40
2023-04-18T03:15:16.974Z,102014.00
2023-04-18T03:17:45.120Z,102011.60
2023-04-18T03:20:13.774Z,102009.80
2023-04-18T03:22:41.856Z,102009.60
2023-04-18T03:25:10.489Z,102009.00
2023-04-18T03:27:47.592Z,102009.20
2023-04-18T03:30:18.091Z,102006.00
2023-04-18T03:32:50.429Z,102010.20
2023-04-18T03:35:18.602Z,102009.80
2023-04-18T03:37:46.412Z,102011.40
2023-04-18T03:40:19.953Z,102008.20
2023-04-18T03:42:48.094Z,102014.20
2023-04-18T03:45:16.710Z,102015.20
2023-04-18T03:47:46.133Z,102016.60
2023-04-18T03:50:14.135Z,102015.60
2023-04-18T03:52:43.174Z,102019.60
2023-04-18T03:55:11.492Z,102015.00
2023-04-18T03:57:40.839Z,102018.40
2023-04-18T04:00:12.427Z,102014.00
2023-04-18T04:02:52.928Z,102019.60
2023-04-18T04:05:21.595Z,102015.00
2023-04-18T04:07:50.058Z,102012.40
2023-04-18T04:10:18.905Z,102015.00
2023-04-18T04:12:48.541Z,102013.00
2023-04-18T04:15:17.203Z,102009.40
2023-04-18T04:17:59.085Z,102016.00
2023-04-18T04:20:27.210Z,102012.80
2023-04-18T04:23:03.062Z,102008.20
2023-04-18T04:25:33.890Z,102008.20
2023-04-18T04:28:04.427Z,102007.60
2023-04-18T04:30:34.355Z,102010.20
2023-04-18T04:33:03.484Z,102004.60
2023-04-18T04:35:32.234Z,101998.20
2023-04-18T04:38:01.663Z,102004.00
2023-04-18T04:40:34.685Z,102003.40
2023-04-18T04:43:12.764Z,101997.40
2023-04-18T04:45:43.584Z,101997.60
2023-04-18T04:48:11.435Z,101996.80
2023-04-18T04:50:41.789Z,101997.80
2023-04-18T04:53:12.454Z,101996.20
2023-04-18T04:55:40.622Z,101985.20
2023-04-18T04:58:08.641Z,101984.80
2023-04-18T05:00:44.239Z,101999.40
2023-04-18T05:03:12.324Z,101994.40
2023-04-18T05:05:40.483Z,101994.20
2023-04-18T05:08:08.410Z,101992.40
2023-04-18T05:10:37.302Z,101993.00
2023-04-18T05:13:05.436Z,101997.40
2023-04-18T05:15:33.223Z,102005.80
2023-04-18T05:18:01.050Z,102008.20
2023-04-18T05:20:29.126Z,102005.20
2023-04-18T05:22:57.220Z,102004.00
2023-04-18T05:25:25.304Z,102010.40
2023-04-18T05:27:53.111Z,102009.40
2023-04-18T05:30:21.222Z,102006.60
2023-04-18T05:32:49.084Z,102006.00
2023-04-18T05:35:16.993Z,102012.60
2023-04-18T05:37:44.864Z,102013.60
2023-04-18T05:40:13.726Z,102010.20
2023-04-18T05:42:41.476Z,102015.00
2023-04-18T05:45:09.764Z,102012.60
2023-04-18T05:47:37.551Z,102010.40
2023-04-18T05:50:06.875Z,102010.80
2023-04-18T05:52:39.017Z,102012.80
2023-04-18T05:55:07.403Z,102009.60
2023-04-18T05:57:35.386Z,102007.20
2023-04-18T06:00:06.841Z,102002.40
2023-04-18T06:02:40.458Z,102008.60
2023-04-18T06:05:09.363Z,102002.00
2023-04-18T06:07:37.502Z,102008.20
2023-04-18T06:10:09.275Z,102003.00
2023-04-18T06:12:37.259Z,102000.00
2023-04-18T06:15:05.955Z,102002.80
2023-04-18T06:17:34.940Z,101998.80
2023-04-18T06:20:05.612Z,102001.60
2023-04-18T06:22:36.383Z,101995.00
2023-04-18T06:25:05.666Z,101995.80
2023-04-18T06:27:33.545Z,102001.40
2023-04-18T06:30:01.572Z,101996.40
2023-04-18T06:32:29.481Z,101996.40
2023-04-18T06:34:57.313Z,101993.20
2023-04-18T06:37:25.513Z,101992.80
2023-04-18T06:39:53.471Z,101985.00
2023-04-18T06:42:22.607Z,101994.00
2023-04-18T06:44:50.906Z,101995.80
2023-04-18T06:47:18.800Z,101995.20
2023-04-18T06:49:46.823Z,102000.40
2023-04-18T06:52:14.750Z,102000.20
2023-04-18T06:54:42.565Z,101996.00
2023-04-18T06:57:12.322Z,101996.00
2023-04-18T06:59:41.465Z,101999.80
2023-04-18T07:02:09.550Z,102004.60
2023-04-18T07:04:37.686Z,101999.60
2023-04-18T07:07:05.761Z,101995.80
2023-04-18T07:09:33.640Z,101987.00
2023-04-18T07:12:01.436Z,101984.20
2023-04-18T07:14:29.958Z,101993.40
2023-04-18T07:16:58.853Z,101994.20
2023-04-18T07:19:26.694Z,102000.20
2023-04-18T07:21:55.950Z,102002.00
2023-04-18T07:24:23.987Z,101998.20
2023-04-18T07:26:54.391Z,101995.80
2023-04-18T07:29:23.044Z,101995.40
2023-04-18T07:31:50.972Z,101994.00
2023-04-18T07:34:18.808Z,101986.80
2023-04-18T07:36:46.690Z,101986.80
2023-04-18T07:39:14.589Z,101977.40
2023-04-18T07:41:42.510Z,101986.20
2023-04-18T07:44:10.762Z,101982.00
2023-04-18T07:46:38.708Z,101981.80
2023-04-18T07:49:06.751Z,101979.20
2023-04-18T07:51:35.002Z,101975.80
2023-04-18T07:54:03.035Z,101978.80
2023-04-18T07:56:31.129Z,101984.00
2023-04-18T07:58:58.940Z,101979.60
2023-04-18T08:01:27.258Z,101981.60
2023-04-18T08:03:57.840Z,101977.40
2023-04-18T08:06:26.245Z,101976.40
2023-04-18T08:08:54.222Z,101971.60
2023-04-18T08:11:22.149Z,101971.60
2023-04-18T08:13:50.278Z,101973.40
2023-04-18T08:16:18.146Z,101961.00
2023-04-18T08:18:45.944Z,101963.80
2023-04-18T08:21:13.808Z,101968.00
2023-04-18T08:23:41.880Z,101962.80
2023-04-18T08:26:09.673Z,101955.80
2023-04-18T08:28:37.480Z,101957.40
2023-04-18T08:31:05.840Z,101954.20
2023-04-18T08:33:33.696Z,101953.60
2023-04-18T08:36:01.671Z,101949.00
2023-04-18T08:38:29.494Z,101947.40
2023-04-18T08:40:57.902Z,101940.60
2023-04-18T08:43:25.804Z,101948.40
2023-04-18T08:46:00.147Z,101941.00
2023-04-18T08:48:28.373Z,101936.20
2023-04-18T08:51:02.266Z,101934.00
2023-04-18T08:53:32.445Z,101937.00
2023-04-18T08:56:01.559Z,101933.20
2023-04-18T08:58:32.318Z,101928.00
2023-04-18T09:01:00.882Z,101930.00
2023-04-18T09:03:39.817Z,101934.40
2023-04-18T09:06:19.080Z,101929.40
2023-04-18T09:08:59.119Z,101925.40
2023-04-18T09:11:31.712Z,101919.80
2023-04-18T09:13:59.671Z,101920.00
2023-04-18T09:16:28.083Z,101924.60
2023-04-18T09:19:15.064Z,101916.60
2023-04-18T09:21:48.916Z,101925.60
2023-04-18T09:24:27.225Z,101915.20
2023-04-18T09:26:58.834Z,101919.00
2023-04-18T09:29:49.513Z,101917.20
2023-04-18T09:32:35.250Z,101912.60
2023-04-18T09:35:05.469Z,101910.60
2023-04-18T09:37:33.441Z,101917.40
2023-04-18T09:40:15.845Z,101919.80
2023-04-18T09:42:43.589Z,101924.60
2023-04-18T09:45:13.150Z,101922.40
2023-04-18T09:47:41.164Z,101919.00
2023-04-18T09:50:11.009Z,101920.80
2023-04-18T09:52:42.736Z,101915.80
2023-04-18T09:55:17.624Z,101918.00
2023-04-18T09:57:50.454Z,101911.20
2023-04-18T10:00:24.882Z,101911.60
2023-04-18T10:02:59.266Z,101904.60
2023-04-18T10:05:32.140Z,101901.60
2023-04-18T10:08:00.762Z,101894.40
2023-04-18T10:10:29.033Z,101886.20
2023-04-18T10:12:59.625Z,101884.80
2023-04-18T10:15:32.313Z,101878.80
2023-04-18T10:18:10.871Z,101873.80
2023-04-18T10:20:41.571Z,101865.20
2023-04-18T10:23:31.104Z,101858.60
2023-04-18T10:25:59.597Z,101863.00
2023-04-18T10:28:28.250Z,101860.00
2023-04-18T10:31:05.486Z,101862.20
2023-04-18T10:33:33.786Z,101857.00
2023-04-18T10:36:12.420Z,101846.60
2023-04-18T10:38:46.151Z,101842.80
2023-04-18T10:41:19.999Z,101842.60
2023-04-18T10:44:08.047Z,101844.80
2023-04-18T10:46:38.877Z,101846.40
2023-04-18T10:49:30.261Z,101844.20
2023-04-18T10:52:02.906Z,101841.40
2023-04-18T10:54:41.931Z,101842.40
2023-04-18T10:57:11.236Z,101841.20
2023-04-18T10:59:43.535Z,101840.60
2023-04-18T11:02:26.391Z,101837.40
2023-04-18T11:05:00.314Z,101835.40
2023-04-18T11:07:37.976Z,101837.20
2023-04-18T11:10:08.920Z,101834.80
2023-04-18T11:12:41.486Z,101832.00
2023-04-18T11:15:22.332Z,101826.60
2023-04-18T11:18:00.498Z,101818.00
2023-04-18T11:20:37.087Z,101824.20
2023-04-18T11:23:16.033Z,101818.20
2023-04-18T11:25:47.033Z,101821.60
2023-04-18T11:28:21.442Z,101823.80
2023-04-18T11:30:49.697Z,101815.40
2023-04-18T11:33:17.703Z,101814.40
2023-04-18T11:35:46.888Z,101811.80
2023-04-18T11:38:16.311Z,101815.60
2023-04-18T11:40:51.112Z,101809.60
2023-04-18T11:43:25.094Z,101805.40
2023-04-18T11:45:58.074Z,101804.60
2023-04-18T11:48:41.416Z,101813.00
2023-04-18T11:51:35.695Z,101809.00
2023-04-18T11:54:04.089Z,101810.00
2023-04-18T11:56:33.025Z,101807.40
2023-04-18T11:59:09.460Z,101808.60
2023-04-18T12:01:37.279Z,101803.00
2023-04-18T12:04:08.027Z,101801.80
2023-04-18T12:06:53.839Z,101794.60
2023-04-18T12:09:27.533Z,101805.00
2023-04-18T12:12:04.030Z,101802.60
2023-04-18T12:14:31.818Z,101805.00
2023-04-18T12:17:03.419Z,101812.60
2023-04-18T12:19:32.682Z,101811.00
2023-04-18T12:22:06.576Z,101809.20
2023-04-18T12:24:34.558Z,101811.00
2023-04-18T12:27:02.460Z,101811.40
2023-04-18T12:29:30.279Z,101813.00
2023-04-18T12:31:58.173Z,101811.40
2023-04-18T12:34:26.176Z,101817.20
2023-04-18T12:36:54.104Z,101821.60
2023-04-18T12:39:21.965Z,101816.80
2023-04-18T12:41:50.071Z,101820.60
2023-04-18T12:44:18.228Z,101817.60
2023-04-18T12:46:46.372Z,101815.80
2023-04-18T12:49:14.819Z,101821.60
2023-04-18T12:51:43.714Z,101818.60
2023-04-18T12:54:11.636Z,101819.00
2023-04-18T12:56:39.610Z,101822.20
2023-04-18T12:59:07.425Z,101822.00
2023-04-18T13:01:35.245Z,101810.40
2023-04-18T13:04:11.800Z,101813.00
2023-04-18T13:06:41.061Z,101812.40
2023-04-18T13:09:09.380Z,101809.60
2023-04-18T13:11:37.338Z,101810.40
2023-04-18T13:14:05.354Z,101801.40
2023-04-18T13:16:33.288Z,101803.40
2023-04-18T13:19:01.223Z,101789.00
2023-04-18T13:21:29.327Z,101788.80
2023-04-18T13:23:57.444Z,101781.20
2023-04-18T13:26:25.682Z,101775.00
2023-04-18T13:28:53.585Z,101776.20
2023-04-18T13:31:21.637Z,101777.80
2023-04-18T13:33:49.384Z,101779.80
2023-04-18T13:36:17.985Z,101787.40
2023-04-18T13:38:46.344Z,101782.60
2023-04-18T13:41:14.161Z,101785.40
2023-04-18T13:43:41.913Z,101783.60
2023-04-18T13:46:09.860Z,101775.20
2023-04-18T13:48:37.749Z,101774.80
2023-04-18T13:51:06.929Z,101767.00
2023-04-18T13:53:34.696Z,101769.40
2023-04-18T13:56:02.548Z,101763.40
2023-04-18T13:58:30.365Z,101763.80
2023-04-18T14:00:58.338Z,101770.20
2023-04-18T14:03:26.947Z,101766.00
2023-04-18T14:05:54.952Z,101766.60
2023-04-18T14:08:22.813Z,101760.20
2023-04-18T14:10:50.704Z,101753.80
2023-04-18T14:13:19.044Z,101758.80
2023-04-18T14:15:47.080Z,101746.80
2023-04-18T14:18:14.948Z,101737.80
2023-04-18T14:20:43.496Z,101738.00
2023-04-18T14:23:11.349Z,101738.00
2023-04-18T14:25:39.107Z,101741.80
2023-04-18T14:28:13.483Z,101744.80
2023-04-18T14:30:41.285Z,101741.00
2023-04-18T14:33:10.155Z,101730.20
2023-04-18T14:35:38.567Z,101732.00
2023-04-18T14:38:06.570Z,101728.00
2023-04-18T14:40:34.437Z,101728.60
2023-04-18T14:43:02.684Z,101730.00
2023-04-18T14:45:34.684Z,101739.80
2023-04-18T14:48:02.666Z,101728.40
2023-04-18T14:50:31.449Z,101728.60
2023-04-18T14:52:59.293Z,101726.60
2023-04-18T14:55:27.140Z,101732.20
2023-04-18T14:57:54.964Z,101741.20
2023-04-18T15:00:22.878Z,101741.60
2023-04-18T15:02:50.909Z,101740.40
2023-04-18T15:05:23.629Z,101737.20
2023-04-18T15:07:52.130Z,101743.20
2023-04-18T15:10:22.366Z,101741.80
2023-04-18T15:12:51.201Z,101738.80
2023-04-18T15:15:19.756Z,101740.00
2023-04-18T15:17:47.588Z,101740.20
2023-04-18T15:20:15.367Z,101744.80
2023-04-18T15:22:43.139Z,101747.00
2023-04-18T15:25:12.438Z,101746.60
2023-04-18T15:27:40.619Z,101746.60
2023-04-18T15:30:13.476Z,101745.60
2023-04-18T15:32:42.145Z,101738.60
2023-04-18T15:35:11.713Z,101745.20
2023-04-18T15:37:39.634Z,101736.40
2023-04-18T15:40:09.597Z,101739.60
2023-04-18T15:42:39.470Z,101725.80
2023-04-18T15:45:08.103Z,101720.60
2023-04-18T15:47:36.193Z,101722.00
2023-04-18T15:50:05.062Z,101720.40
2023-04-18T15:52:33.068Z,101725.00
2023-04-18T15:55:01.054Z,101722.60
2023-04-18T15:57:32.120Z,101720.40
2023-04-18T16:00:00.159Z,101722.20
2023-04-18T16:02:28.128Z,101722.40
2023-04-18T16:04:55.998Z,101723.20
2023-04-18T16:07:23.701Z,101716.40
2023-04-18T16:09:51.457Z,101717.40
2023-04-18T16:12:19.289Z,101713.40
2023-04-18T16:14:47.046Z,101714.80
2023-04-18T16:17:14.909Z,101715.20
2023-04-18T16:19:42.912Z,101713.00
2023-04-18T16:22:12.145Z,101714.40
2023-04-18T16:24:41.945Z,101722.80
2023-04-18T16:27:09.893Z,101721.00
2023-04-18T16:29:37.815Z,101719.40
2023-04-18T16:32:09.358Z,101708.40
2023-04-18T16:34:37.204Z,101715.00
2023-04-18T16:37:04.956Z,101713.40
2023-04-18T16:39:32.827Z,101711.60
2023-04-18T16:42:01.143Z,101711.40
2023-04-18T16:44:29.107Z,101716.20
2023-04-18T16:46:57.058Z,101721.20
2023-04-18T16:49:25.310Z,101720.60
2023-04-18T16:51:53.084Z,101716.60
2023-04-18T16:54:20.953Z,101721.20
2023-04-18T16:56:48.775Z,101721.00
2023-04-18T16:59:16.643Z,101722.40
2023-04-18T17:01:44.479Z,101725.00
2023-04-18T17:04:12.545Z,101724.00
2023-04-18T17:06:42.835Z,101721.60
2023-04-18T17:09:13.573Z,101728.20
2023-04-18T17:11:42.125Z,101715.20
2023-04-18T17:14:10.106Z,101719.00
2023-04-18T17:16:40.650Z,101724.20
2023-04-18T17:19:09.868Z,101721.40
2023-04-18T17:21:38.464Z,101719.20
2023-04-18T17:24:07.369Z,101722.00
2023-04-18T17:26:38.268Z,101722.40
2023-04-18T17:29:06.300Z,101718.20
2023-04-18T17:31:34.641Z,101720.80
2023-04-18T17:34:03.782Z,101724.00
2023-04-18T17:36:31.743Z,101722.60
2023-04-18T17:39:11.634Z,101724.80
2023-04-18T17:41:39.588Z,101722.40
2023-04-18T17:44:08.581Z,101724.20
2023-04-18T17:46:37.303Z,101723.60
2023-04-18T17:49:05.535Z,101724.60
2023-04-18T17:51:34.891Z,101728.20
2023-04-18T17:54:02.983Z,101728.40
2023-04-18T17:56:31.387Z,101732.80
2023-04-18T17:58:59.387Z,101739.60
2023-04-18T18:01:31.693Z,101735.80
2023-04-18T18:04:02.802Z,101733.80
2023-04-18T18:06:31.256Z,101732.40
2023-04-18T18:08:59.255Z,101730.80
2023-04-18T18:11:27.756Z,101733.60
2023-04-18T18:13:57.429Z,101733.60
2023-04-18T18:16:25.333Z,101736.00
2023-04-18T18:18:53.250Z,101735.00
2023-04-18T18:21:21.083Z,101740.40
2023-04-18T18:23:48.879Z,101741.20
2023-04-18T18:26:16.715Z,101746.40
2023-04-18T18:28:44.474Z,101749.40
2023-04-18T18:31:12.765Z,101748.00
2023-04-18T18:33:41.847Z,101752.40
2023-04-18T18:36:09.708Z,101749.80
2023-04-18T18:38:37.653Z,101752.60
2023-04-18T18:41:07.112Z,101752.20
2023-04-18T18:43:35.017Z,101750.40
2023-04-18T18:46:02.976Z,101753.40
2023-04-18T18:48:33.389Z,101751.80
2023-04-18T18:51:02.662Z,101754.40
2023-04-18T18:53:31.715Z,101754.40
2023-04-18T18:56:02.343Z,101757.00
2023-04-18T18:58:31.421Z,101760.60
2023-04-18T19:01:03.126Z,101762.40
2023-04-18T19:03:33.474Z,101761.60
2023-04-18T19:06:04.329Z,101760.60
2023-04-18T19:08:35.817Z,101767.00
2023-04-18T19:11:04.371Z,101770.00
2023-04-18T19:13:32.328Z,101770.40
2023-04-18T19:16:00.318Z,101770.40
2023-04-18T19:18:28.525Z,101770.80
2023-04-18T19:20:56.777Z,101767.20
2023-04-18T19:23:25.341Z,101769.00
2023-04-18T19:25:53.778Z,101775.20
2023-04-18T19:28:23.510Z,101774.40
2023-04-18T19:30:53.541Z,101775.60
2023-04-18T19:33:24.306Z,101775.00
2023-04-18T19:35:53.028Z,101771.80
2023-04-18T19:38:21.368Z,101776.80
2023-04-18T19:40:49.737Z,101777.20
2023-04-18T19:43:18.553Z,101778.20
2023-04-18T19:45:47.476Z,101781.80
2023-04-18T19:48:16.498Z,101781.00
2023-04-18T19:50:45.213Z,101780.80
2023-04-18T19:53:16.031Z,101782.00
2023-04-18T19:55:46.671Z,101782.00
2023-04-18T19:58:36.150Z,101785.00
2023-04-18T20:01:06.642Z,101777.80
2023-04-18T20:03:36.001Z,101772.40
2023-04-18T20:06:06.774Z,101778.80
2023-04-18T20:08:38.989Z,101781.80
2023-04-18T20:11:10.552Z,101781.00
2023-04-18T20:13:40.007Z,101780.20
2023-04-18T20:16:09.587Z,101777.60
2023-04-18T20:18:41.290Z,101779.80
2023-04-18T20:21:11.033Z,101785.80
2023-04-18T20:23:42.015Z,101776.20
2023-04-18T20:26:10.011Z,101778.20
2023-04-18T20:28:37.996Z,101780.80
2023-04-18T20:31:05.885Z,101777.80
2023-04-18T20:33:34.314Z,101777.20
2023-04-18T20:36:02.573Z,101769.40
2023-04-18T20:38:30.429Z,101772.80
2023-04-18T20:40:58.793Z,101772.20
2023-04-18T20:43:27.801Z,101763.40
2023-04-18T20:45:57.769Z,101765.60
2023-04-18T20:48:26.291Z,101769.60
2023-04-18T20:50:55.156Z,101764.40
2023-04-18T20:53:27.258Z,101768.60
2023-04-18T20:55:56.178Z,101766.80
2023-04-18T20:58:25.239Z,101768.20
2023-04-18T21:00:54.398Z,101777.00
2023-04-18T21:03:25.150Z,101770.60
2023-04-18T21:05:54.418Z,101775.60
2023-04-18T21:08:22.861Z,101781.40
2023-04-18T21:10:50.731Z,101781.60
2023-04-18T21:13:18.501Z,101774.80
2023-04-18T21:15:46.479Z,101777.60
2023-04-18T21:18:14.368Z,101781.20
2023-04-18T21:20:42.199Z,101776.00
2023-04-18T21:23:10.063Z,101779.80
2023-04-18T21:25:37.825Z,101782.40
2023-04-18T21:28:06.060Z,101783.00
2023-04-18T21:30:34.248Z,101789.20
2023-04-18T21:33:02.633Z,101784.40
2023-04-18T21:35:30.531Z,101781.60
2023-04-18T21:37:58.589Z,101781.40
2023-04-18T21:40:26.865Z,101776.80
2023-04-18T21:42:54.612Z,101774.20
2023-04-18T21:45:22.538Z,101777.20
2023-04-18T21:47:50.617Z,101779.60
2023-04-18T21:50:18.614Z,101777.40
2023-04-18T21:52:46.420Z,101783.20
2023-04-18T21:55:14.277Z,101780.60
2023-04-18T21:57:42.113Z,101779.00
2023-04-18T22:00:11.229Z,101776.40
2023-04-18T22:02:40.889Z,101773.40
2023-04-18T22:05:09.152Z,101770.80
2023-04-18T22:07:50.110Z,101771.20
2023-04-18T22:10:25.293Z,101775.60
2023-04-18T22:12:56.274Z,101783.80
2023-04-18T22:15:24.642Z,101772.40
2023-04-18T22:17:54.292Z,101774.20
2023-04-18T22:20:22.350Z,101769.20
2023-04-18T22:22:50.083Z,101766.20
2023-04-18T22:25:18.053Z,101773.40
2023-04-18T22:27:46.470Z,101778.00
2023-04-18T22:30:14.685Z,101767.80
2023-04-18T22:32:42.575Z,101775.20
2023-04-18T22:35:10.880Z,101771.00
2023-04-18T22:37:38.967Z,101776.40
2023-04-18T22:40:09.108Z,101770.40
2023-04-18T22:42:38.619Z,101767.00
2023-04-18T22:45:07.400Z,101771.20
2023-04-18T22:47:36.022Z,101766.40
2023-04-18T22:50:04.451Z,101766.20
2023-04-18T22:52:32.456Z,101762.00
2023-04-18T22:55:02.645Z,101759.40
2023-04-18T22:57:30.745Z,101758.40
2023-04-18T22:59:58.640Z,101762.20
2023-04-18T23:02:26.674Z,101760.20
2023-04-18T23:04:58.422Z,101764.40
2023-04-18T23:07:26.406Z,101760.20
2023-04-18T23:09:54.276Z,101759.40
2023-04-18T23:12:22.439Z,101759.20
2023-04-18T23:14:50.405Z,101756.60
2023-04-18T23:17:18.489Z,101758.20
2023-04-18T23:19:46.381Z,101764.80
2023-04-18T23:22:14.316Z,101760.80
2023-04-18T23:24:42.183Z,101762.00
2023-04-18T23:27:09.961Z,101759.00
2023-04-18T23:29:39.168Z,101764.80
2023-04-18T23:32:07.014Z,101761.20
2023-04-18T23:34:34.863Z,101764.20
2023-04-18T23:37:02.638Z,101768.40
2023-04-18T23:39:30.551Z,101761.00
2023-04-18T23:41:58.431Z,101761.40
2023-04-18T23:44:26.250Z,101758.40
2023-04-18T23:46:54.112Z,101761.60
2023-04-18T23:49:21.959Z,101758.00
2023-04-18T23:51:49.770Z,101765.40
2023-04-18T23:54:17.543Z,101755.20
2023-04-18T23:56:45.409Z,101759.60
2023-04-18T23:59:13.576Z,101761.20
